sensor_id;sensor_type;location;lat;lon;timestamp;temperature;humidity
68813;DHT22;55808;48.112;11.552;2022-07-11T00:00:46;14.10;99.90
68813;DHT22;55808;48.112;11.552;2022-07-11T00:03:12;14.20;99.90
68813;DHT22;55808;48.112;11.552;2022-07-11T00:05:38;14.30;99.90
68813;DHT22;55808;48.112;11.552;2022-07-11T00:08:04;14.20;99.90
68813;DHT22;55808;48.112;11.552;2022-07-11T00:10:32;14.20;99.90
68813;DHT22;55808;48.112;11.552;2022-07-11T00:12:58;14.30;99.90
68813;DHT22;55808;48.112;11.552;2022-07-11T00:15:24;14.30;99.90
68813;DHT22;55808;48.112;11.552;2022-07-11T00:17:50;14.40;99.90
68813;DHT22;55808;48.112;11.552;2022-07-11T00:20:16;14.40;99.90
68813;DHT22;55808;48.112;11.552;2022-07-11T00:22:42;14.40;99.90
68813;DHT22;55808;48.112;11.552;2022-07-11T00:25:08;14.40;99.90
68813;DHT22;55808;48.112;11.552;2022-07-11T00:27:34;14.50;99.90
68813;DHT22;55808;48.112;11.552;2022-07-11T00:29:59;14.60;99.90
68813;DHT22;55808;48.112;11.552;2022-07-11T00:32:25;14.60;99.90
68813;DHT22;55808;48.112;11.552;2022-07-11T00:34:51;14.50;99.90
68813;DHT22;55808;48.112;11.552;2022-07-11T00:37:17;14.40;99.90
68813;DHT22;55808;48.112;11.552;2022-07-11T00:39:42;14.40;99.90
68813;DHT22;55808;48.112;11.552;2022-07-11T00:42:08;14.40;99.90
68813;DHT22;55808;48.112;11.552;2022-07-11T00:44:34;14.50;99.90
68813;DHT22;55808;48.112;11.552;2022-07-11T00:47:02;14.60;99.90
68813;DHT22;55808;48.112;11.552;2022-07-11T00:49:29;14.70;99.90
68813;DHT22;55808;48.112;11.552;2022-07-11T00:51:55;14.80;99.90
68813;DHT22;55808;48.112;11.552;2022-07-11T00:54:21;14.70;99.90
68813;DHT22;55808;48.112;11.552;2022-07-11T00:56:47;14.70;99.90
68813;DHT22;55808;48.112;11.552;2022-07-11T00:59:14;14.70;99.90
68813;DHT22;55808;48.112;11.552;2022-07-11T01:01:43;14.80;99.90
68813;DHT22;55808;48.112;11.552;2022-07-11T01:04:09;14.70;99.90
68813;DHT22;55808;48.112;11.552;2022-07-11T01:06:35;14.70;99.90
68813;DHT22;55808;48.112;11.552;2022-07-11T01:09:01;14.50;99.90
68813;DHT22;55808;48.112;11.552;2022-07-11T01:11:27;14.50;99.90
68813;DHT22;55808;48.112;11.552;2022-07-11T01:13:52;14.40;99.90
68813;DHT22;55808;48.112;11.552;2022-07-11T01:16:20;14.40;99.90
68813;DHT22;55808;48.112;11.552;2022-07-11T01:18:49;14.50;99.90
68813;DHT22;55808;48.112;11.552;2022-07-11T01:21:22;14.50;99.90
68813;DHT22;55808;48.112;11.552;2022-07-11T01:23:49;14.60;99.90
68813;DHT22;55808;48.112;11.552;2022-07-11T01:26:19;14.70;99.90
68813;DHT22;55808;48.112;11.552;2022-07-11T01:28:45;14.80;99.90
68813;DHT22;55808;48.112;11.552;2022-07-11T01:31:11;14.60;99.90
68813;DHT22;55808;48.112;11.552;2022-07-11T01:33:38;14.50;99.90
68813;DHT22;55808;48.112;11.552;2022-07-11T01:36:05;14.50;99.90
68813;DHT22;55808;48.112;11.552;2022-07-11T01:38:31;14.40;99.90
68813;DHT22;55808;48.112;11.552;2022-07-11T01:40:56;14.50;99.90
68813;DHT22;55808;48.112;11.552;2022-07-11T01:43:22;14.70;99.90
68813;DHT22;55808;48.112;11.552;2022-07-11T01:45:52;14.80;99.90
68813;DHT22;55808;48.112;11.552;2022-07-11T01:48:18;14.80;99.90
68813;DHT22;55808;48.112;11.552;2022-07-11T01:50:44;14.80;99.90
68813;DHT22;55808;48.112;11.552;2022-07-11T01:53:10;14.80;99.90
68813;DHT22;55808;48.112;11.552;2022-07-11T01:55:35;14.80;99.90
68813;DHT22;55808;48.112;11.552;2022-07-11T01:58:01;14.80;99.90
68813;DHT22;55808;48.112;11.552;2022-07-11T02:00:27;14.70;99.90
68813;DHT22;55808;48.112;11.552;2022-07-11T02:02:52;14.60;99.90
68813;DHT22;55808;48.112;11.552;2022-07-11T02:05:18;14.80;99.90
68813;DHT22;55808;48.112;11.552;2022-07-11T02:07:44;14.80;99.90
68813;DHT22;55808;48.112;11.552;2022-07-11T02:10:28;14.70;99.90
68813;DHT22;55808;48.112;11.552;2022-07-11T02:12:57;14.70;99.90
68813;DHT22;55808;48.112;11.552;2022-07-11T02:15:25;14.70;99.90
68813;DHT22;55808;48.112;11.552;2022-07-11T02:17:50;14.70;99.90
68813;DHT22;55808;48.112;11.552;2022-07-11T02:20:18;14.80;99.90
68813;DHT22;55808;48.112;11.552;2022-07-11T02:22:44;14.80;99.90
68813;DHT22;55808;48.112;11.552;2022-07-11T02:25:09;14.80;99.90
68813;DHT22;55808;48.112;11.552;2022-07-11T02:27:35;14.60;99.90
68813;DHT22;55808;48.112;11.552;2022-07-11T02:30:01;14.60;99.90
68813;DHT22;55808;48.112;11.552;2022-07-11T02:32:26;14.70;99.90
68813;DHT22;55808;48.112;11.552;2022-07-11T02:34:52;14.70;99.90
68813;DHT22;55808;48.112;11.552;2022-07-11T02:37:19;14.70;99.90
68813;DHT22;55808;48.112;11.552;2022-07-11T02:39:45;14.60;99.90
68813;DHT22;55808;48.112;11.552;2022-07-11T02:42:11;14.50;99.90
68813;DHT22;55808;48.112;11.552;2022-07-11T02:44:36;14.50;99.90
68813;DHT22;55808;48.112;11.552;2022-07-11T02:47:02;14.50;99.90
68813;DHT22;55808;48.112;11.552;2022-07-11T02:49:28;14.50;99.90
68813;DHT22;55808;48.112;11.552;2022-07-11T02:51:56;14.50;99.90
68813;DHT22;55808;48.112;11.552;2022-07-11T02:54:21;14.50;99.90
68813;DHT22;55808;48.112;11.552;2022-07-11T02:56:47;14.50;99.90
68813;DHT22;55808;48.112;11.552;2022-07-11T02:59:13;14.50;99.90
68813;DHT22;55808;48.112;11.552;2022-07-11T03:01:39;14.40;99.90
68813;DHT22;55808;48.112;11.552;2022-07-11T03:04:07;14.40;99.90
68813;DHT22;55808;48.112;11.552;2022-07-11T03:06:33;14.30;99.90
68813;DHT22;55808;48.112;11.552;2022-07-11T03:08:59;14.40;99.90
68813;DHT22;55808;48.112;11.552;2022-07-11T03:11:25;14.40;99.90
68813;DHT22;55808;48.112;11.552;2022-07-11T03:13:50;14.50;99.90
68813;DHT22;55808;48.112;11.552;2022-07-11T03:16:16;14.50;99.90
68813;DHT22;55808;48.112;11.552;2022-07-11T03:18:42;14.40;99.90
68813;DHT22;55808;48.112;11.552;2022-07-11T03:21:07;14.50;99.90
68813;DHT22;55808;48.112;11.552;2022-07-11T03:23:33;14.50;99.90
68813;DHT22;55808;48.112;11.552;2022-07-11T03:26:00;14.60;99.90
68813;DHT22;55808;48.112;11.552;2022-07-11T03:28:26;14.60;99.90
68813;DHT22;55808;48.112;11.552;2022-07-11T03:30:52;14.70;99.90
68813;DHT22;55808;48.112;11.552;2022-07-11T03:33:18;14.70;99.90
68813;DHT22;55808;48.112;11.552;2022-07-11T03:35:43;14.60;99.90
68813;DHT22;55808;48.112;11.552;2022-07-11T03:38:11;14.60;99.90
68813;DHT22;55808;48.112;11.552;2022-07-11T03:40:37;14.60;99.90
68813;DHT22;55808;48.112;11.552;2022-07-11T03:43:03;14.50;99.90
68813;DHT22;55808;48.112;11.552;2022-07-11T03:45:29;14.50;99.90
68813;DHT22;55808;48.112;11.552;2022-07-11T03:47:54;14.60;99.90
68813;DHT22;55808;48.112;11.552;2022-07-11T03:50:20;14.60;99.90
68813;DHT22;55808;48.112;11.552;2022-07-11T03:52:46;14.60;99.90
68813;DHT22;55808;48.112;11.552;2022-07-11T03:55:12;14.60;99.90
68813;DHT22;55808;48.112;11.552;2022-07-11T03:57:37;14.70;99.90
68813;DHT22;55808;48.112;11.552;2022-07-11T04:00:05;14.70;99.90
68813;DHT22;55808;48.112;11.552;2022-07-11T04:02:32;14.60;99.90
68813;DHT22;55808;48.112;11.552;2022-07-11T04:04:58;14.50;99.90
68813;DHT22;55808;48.112;11.552;2022-07-11T04:07:24;14.50;99.90
68813;DHT22;55808;48.112;11.552;2022-07-11T04:09:50;14.50;99.90
68813;DHT22;55808;48.112;11.552;2022-07-11T04:12:15;14.50;99.90
68813;DHT22;55808;48.112;11.552;2022-07-11T04:14:43;14.60;99.90
68813;DHT22;55808;48.112;11.552;2022-07-11T04:17:09;14.60;99.90
68813;DHT22;55808;48.112;11.552;2022-07-11T04:19:35;14.70;99.00
68813;DHT22;55808;48.112;11.552;2022-07-11T04:22:01;14.70;99.90
68813;DHT22;55808;48.112;11.552;2022-07-11T04:24:26;14.80;99.70
68813;DHT22;55808;48.112;11.552;2022-07-11T04:26:52;14.80;99.20
68813;DHT22;55808;48.112;11.552;2022-07-11T04:29:18;14.80;98.20
68813;DHT22;55808;48.112;11.552;2022-07-11T04:31:43;14.80;98.20
68813;DHT22;55808;48.112;11.552;2022-07-11T04:34:09;14.80;97.50
68813;DHT22;55808;48.112;11.552;2022-07-11T04:36:35;14.80;97.60
68813;DHT22;55808;48.112;11.552;2022-07-11T04:39:00;14.80;97.70
68813;DHT22;55808;48.112;11.552;2022-07-11T04:41:26;14.90;97.80
68813;DHT22;55808;48.112;11.552;2022-07-11T04:43:52;14.90;97.70
68813;DHT22;55808;48.112;11.552;2022-07-11T04:46:17;15.00;96.50
68813;DHT22;55808;48.112;11.552;2022-07-11T04:48:43;14.90;96.60
68813;DHT22;55808;48.112;11.552;2022-07-11T04:51:09;15.00;97.30
68813;DHT22;55808;48.112;11.552;2022-07-11T04:53:35;14.90;95.80
68813;DHT22;55808;48.112;11.552;2022-07-11T04:56:01;14.90;96.20
68813;DHT22;55808;48.112;11.552;2022-07-11T04:58:27;14.90;96.40
68813;DHT22;55808;48.112;11.552;2022-07-11T05:00:52;15.00;97.20
68813;DHT22;55808;48.112;11.552;2022-07-11T05:03:19;15.00;96.10
68813;DHT22;55808;48.112;11.552;2022-07-11T05:05:46;15.10;96.80
68813;DHT22;55808;48.112;11.552;2022-07-11T05:08:11;15.00;96.50
68813;DHT22;55808;48.112;11.552;2022-07-11T05:10:37;15.10;96.20
68813;DHT22;55808;48.112;11.552;2022-07-11T05:13:03;15.20;96.40
68813;DHT22;55808;48.112;11.552;2022-07-11T05:15:30;15.20;96.00
68813;DHT22;55808;48.112;11.552;2022-07-11T05:17:56;15.30;96.10
68813;DHT22;55808;48.112;11.552;2022-07-11T05:20:22;15.40;95.70
68813;DHT22;55808;48.112;11.552;2022-07-11T05:22:48;15.30;95.40
68813;DHT22;55808;48.112;11.552;2022-07-11T05:25:14;15.30;94.60
68813;DHT22;55808;48.112;11.552;2022-07-11T05:27:39;15.40;94.80
68813;DHT22;55808;48.112;11.552;2022-07-11T05:30:06;15.40;94.80
68813;DHT22;55808;48.112;11.552;2022-07-11T05:32:33;15.50;96.40
68813;DHT22;55808;48.112;11.552;2022-07-11T05:34:58;15.50;94.70
68813;DHT22;55808;48.112;11.552;2022-07-11T05:37:26;15.50;94.90
68813;DHT22;55808;48.112;11.552;2022-07-11T05:39:51;15.50;94.50
68813;DHT22;55808;48.112;11.552;2022-07-11T05:42:17;15.50;94.00
68813;DHT22;55808;48.112;11.552;2022-07-11T05:44:43;15.50;94.10
68813;DHT22;55808;48.112;11.552;2022-07-11T05:47:08;15.60;94.60
68813;DHT22;55808;48.112;11.552;2022-07-11T05:49:34;15.60;93.80
68813;DHT22;55808;48.112;11.552;2022-07-11T05:52:00;15.60;93.50
68813;DHT22;55808;48.112;11.552;2022-07-11T05:54:27;15.60;93.70
68813;DHT22;55808;48.112;11.552;2022-07-11T05:56:53;15.70;93.50
68813;DHT22;55808;48.112;11.552;2022-07-11T05:59:20;15.70;93.20
68813;DHT22;55808;48.112;11.552;2022-07-11T06:01:46;15.70;93.80
68813;DHT22;55808;48.112;11.552;2022-07-11T06:04:12;15.70;93.40
68813;DHT22;55808;48.112;11.552;2022-07-11T06:06:38;15.70;93.20
68813;DHT22;55808;48.112;11.552;2022-07-11T06:09:04;15.70;93.10
68813;DHT22;55808;48.112;11.552;2022-07-11T06:11:30;15.70;93.60
68813;DHT22;55808;48.112;11.552;2022-07-11T06:13:56;15.80;93.30
68813;DHT22;55808;48.112;11.552;2022-07-11T06:16:22;15.70;93.50
68813;DHT22;55808;48.112;11.552;2022-07-11T06:18:48;15.70;93.60
68813;DHT22;55808;48.112;11.552;2022-07-11T06:21:14;15.70;92.60
68813;DHT22;55808;48.112;11.552;2022-07-11T06:23:40;15.60;92.70
68813;DHT22;55808;48.112;11.552;2022-07-11T06:26:07;15.60;92.40
68813;DHT22;55808;48.112;11.552;2022-07-11T06:28:33;15.70;93.40
68813;DHT22;55808;48.112;11.552;2022-07-11T06:31:00;15.70;93.00
68813;DHT22;55808;48.112;11.552;2022-07-11T06:33:25;15.70;93.40
68813;DHT22;55808;48.112;11.552;2022-07-11T06:35:51;15.80;93.70
68813;DHT22;55808;48.112;11.552;2022-07-11T06:38:20;15.90;93.50
68813;DHT22;55808;48.112;11.552;2022-07-11T06:40:46;15.90;93.30
68813;DHT22;55808;48.112;11.552;2022-07-11T06:43:12;15.90;92.80
68813;DHT22;55808;48.112;11.552;2022-07-11T06:45:38;16.00;93.10
68813;DHT22;55808;48.112;11.552;2022-07-11T06:48:05;16.00;92.10
68813;DHT22;55808;48.112;11.552;2022-07-11T06:50:34;15.90;91.90
68813;DHT22;55808;48.112;11.552;2022-07-11T06:53:02;15.90;92.40
68813;DHT22;55808;48.112;11.552;2022-07-11T06:55:28;15.90;91.60
68813;DHT22;55808;48.112;11.552;2022-07-11T06:57:54;16.00;91.40
68813;DHT22;55808;48.112;11.552;2022-07-11T07:00:19;16.00;91.00
68813;DHT22;55808;48.112;11.552;2022-07-11T07:02:45;15.90;91.00
68813;DHT22;55808;48.112;11.552;2022-07-11T07:05:13;16.00;90.70
68813;DHT22;55808;48.112;11.552;2022-07-11T07:07:39;16.10;90.70
68813;DHT22;55808;48.112;11.552;2022-07-11T07:10:06;16.10;89.00
68813;DHT22;55808;48.112;11.552;2022-07-11T07:12:32;16.10;90.10
68813;DHT22;55808;48.112;11.552;2022-07-11T07:15:00;16.30;90.10
68813;DHT22;55808;48.112;11.552;2022-07-11T07:17:25;16.30;87.40
68813;DHT22;55808;48.112;11.552;2022-07-11T07:19:51;16.30;87.70
68813;DHT22;55808;48.112;11.552;2022-07-11T07:22:17;16.40;87.80
68813;DHT22;55808;48.112;11.552;2022-07-11T07:24:43;16.30;87.30
68813;DHT22;55808;48.112;11.552;2022-07-11T07:27:09;16.50;87.10
68813;DHT22;55808;48.112;11.552;2022-07-11T07:29:35;16.60;87.80
68813;DHT22;55808;48.112;11.552;2022-07-11T07:32:01;16.50;87.90
68813;DHT22;55808;48.112;11.552;2022-07-11T07:34:26;16.60;87.00
68813;DHT22;55808;48.112;11.552;2022-07-11T07:36:52;16.70;86.40
68813;DHT22;55808;48.112;11.552;2022-07-11T07:39:18;16.70;86.90
68813;DHT22;55808;48.112;11.552;2022-07-11T07:41:43;16.70;85.40
68813;DHT22;55808;48.112;11.552;2022-07-11T07:44:10;16.70;86.00
68813;DHT22;55808;48.112;11.552;2022-07-11T07:46:36;16.90;86.50
68813;DHT22;55808;48.112;11.552;2022-07-11T07:49:02;17.10;86.20
68813;DHT22;55808;48.112;11.552;2022-07-11T07:51:29;17.10;85.80
68813;DHT22;55808;48.112;11.552;2022-07-11T07:53:55;17.00;86.40
68813;DHT22;55808;48.112;11.552;2022-07-11T07:56:20;17.30;86.60
68813;DHT22;55808;48.112;11.552;2022-07-11T07:58:46;17.40;85.10
68813;DHT22;55808;48.112;11.552;2022-07-11T08:01:12;17.40;84.40
68813;DHT22;55808;48.112;11.552;2022-07-11T08:03:56;17.40;85.60
68813;DHT22;55808;48.112;11.552;2022-07-11T08:06:22;17.30;82.80
68813;DHT22;55808;48.112;11.552;2022-07-11T08:08:48;17.40;85.70
68813;DHT22;55808;48.112;11.552;2022-07-11T08:11:16;17.70;86.50
68813;DHT22;55808;48.112;11.552;2022-07-11T08:13:42;17.80;83.70
68813;DHT22;55808;48.112;11.552;2022-07-11T08:16:08;17.70;81.50
68813;DHT22;55808;48.112;11.552;2022-07-11T08:18:34;17.60;82.00
68813;DHT22;55808;48.112;11.552;2022-07-11T08:21:01;17.60;83.10
68813;DHT22;55808;48.112;11.552;2022-07-11T08:23:27;17.60;84.30
68813;DHT22;55808;48.112;11.552;2022-07-11T08:25:53;17.60;81.90
68813;DHT22;55808;48.112;11.552;2022-07-11T08:28:19;17.70;85.00
68813;DHT22;55808;48.112;11.552;2022-07-11T08:30:44;17.60;86.00
68813;DHT22;55808;48.112;11.552;2022-07-11T08:33:13;17.80;87.20
68813;DHT22;55808;48.112;11.552;2022-07-11T08:35:39;17.80;83.60
68813;DHT22;55808;48.112;11.552;2022-07-11T08:38:05;17.60;82.90
68813;DHT22;55808;48.112;11.552;2022-07-11T08:40:31;17.70;84.50
68813;DHT22;55808;48.112;11.552;2022-07-11T08:42:57;17.70;84.60
68813;DHT22;55808;48.112;11.552;2022-07-11T08:45:29;17.70;87.30
68813;DHT22;55808;48.112;11.552;2022-07-11T08:47:54;17.80;83.30
68813;DHT22;55808;48.112;11.552;2022-07-11T08:50:22;17.90;84.00
68813;DHT22;55808;48.112;11.552;2022-07-11T08:52:48;17.90;83.90
68813;DHT22;55808;48.112;11.552;2022-07-11T08:55:14;17.80;83.00
68813;DHT22;55808;48.112;11.552;2022-07-11T08:57:40;17.90;83.80
68813;DHT22;55808;48.112;11.552;2022-07-11T09:00:08;17.80;81.00
68813;DHT22;55808;48.112;11.552;2022-07-11T09:02:45;17.90;81.30
68813;DHT22;55808;48.112;11.552;2022-07-11T09:05:11;17.80;81.90
68813;DHT22;55808;48.112;11.552;2022-07-11T09:07:45;17.90;83.90
68813;DHT22;55808;48.112;11.552;2022-07-11T09:10:13;17.70;84.20
68813;DHT22;55808;48.112;11.552;2022-07-11T09:15:45;17.90;84.50
68813;DHT22;55808;48.112;11.552;2022-07-11T09:21:14;17.90;83.70
68813;DHT22;55808;48.112;11.552;2022-07-11T09:24:01;17.90;85.00
68813;DHT22;55808;48.112;11.552;2022-07-11T09:26:47;18.00;83.40
68813;DHT22;55808;48.112;11.552;2022-07-11T09:29:20;18.20;82.70
68813;DHT22;55808;48.112;11.552;2022-07-11T09:31:47;18.30;83.10
68813;DHT22;55808;48.112;11.552;2022-07-11T09:34:14;18.20;83.30
68813;DHT22;55808;48.112;11.552;2022-07-11T09:36:53;18.20;83.60
68813;DHT22;55808;48.112;11.552;2022-07-11T09:39:29;18.10;83.10
68813;DHT22;55808;48.112;11.552;2022-07-11T09:41:56;17.90;82.90
68813;DHT22;55808;48.112;11.552;2022-07-11T09:44:26;18.00;82.80
68813;DHT22;55808;48.112;11.552;2022-07-11T09:46:55;18.10;84.00
68813;DHT22;55808;48.112;11.552;2022-07-11T09:49:39;18.10;83.70
68813;DHT22;55808;48.112;11.552;2022-07-11T09:52:16;18.00;83.40
68813;DHT22;55808;48.112;11.552;2022-07-11T09:55:00;18.00;84.10
68813;DHT22;55808;48.112;11.552;2022-07-11T09:57:37;18.00;83.60
68813;DHT22;55808;48.112;11.552;2022-07-11T10:00:05;18.00;81.40
68813;DHT22;55808;48.112;11.552;2022-07-11T10:02:32;18.10;82.70
68813;DHT22;55808;48.112;11.552;2022-07-11T10:04:59;18.40;82.80
68813;DHT22;55808;48.112;11.552;2022-07-11T10:07:26;18.40;80.00
68813;DHT22;55808;48.112;11.552;2022-07-11T10:09:52;18.60;82.60
68813;DHT22;55808;48.112;11.552;2022-07-11T10:12:20;18.60;80.20
68813;DHT22;55808;48.112;11.552;2022-07-11T10:14:46;18.60;79.50
68813;DHT22;55808;48.112;11.552;2022-07-11T10:20:01;18.80;79.70
68813;DHT22;55808;48.112;11.552;2022-07-11T10:25:24;18.70;85.50
68813;DHT22;55808;48.112;11.552;2022-07-11T10:28:14;18.70;84.70
68813;DHT22;55808;48.112;11.552;2022-07-11T10:30:52;18.80;90.00
68813;DHT22;55808;48.112;11.552;2022-07-11T10:33:21;18.60;82.10
68813;DHT22;55808;48.112;11.552;2022-07-11T10:35:49;18.60;85.60
68813;DHT22;55808;48.112;11.552;2022-07-11T10:38:16;18.60;83.00
68813;DHT22;55808;48.112;11.552;2022-07-11T10:40:43;18.50;82.60
68813;DHT22;55808;48.112;11.552;2022-07-11T10:43:09;18.20;84.90
68813;DHT22;55808;48.112;11.552;2022-07-11T10:48:21;18.20;85.50
68813;DHT22;55808;48.112;11.552;2022-07-11T10:50:46;18.10;83.40
68813;DHT22;55808;48.112;11.552;2022-07-11T10:53:21;18.10;82.80
68813;DHT22;55808;48.112;11.552;2022-07-11T10:58:29;18.30;82.50
68813;DHT22;55808;48.112;11.552;2022-07-11T11:01:15;18.20;85.80
68813;DHT22;55808;48.112;11.552;2022-07-11T11:03:42;18.40;85.10
68813;DHT22;55808;48.112;11.552;2022-07-11T11:06:10;18.60;86.70
68813;DHT22;55808;48.112;11.552;2022-07-11T11:08:39;18.90;83.50
68813;DHT22;55808;48.112;11.552;2022-07-11T11:14:17;19.30;80.50
68813;DHT22;55808;48.112;11.552;2022-07-11T11:16:44;20.20;83.60
68813;DHT22;55808;48.112;11.552;2022-07-11T11:22:14;19.90;79.30
68813;DHT22;55808;48.112;11.552;2022-07-11T11:24:52;20.60;77.60
68813;DHT22;55808;48.112;11.552;2022-07-11T11:27:23;21.10;76.70
68813;DHT22;55808;48.112;11.552;2022-07-11T11:29:53;21.00;71.60
68813;DHT22;55808;48.112;11.552;2022-07-11T11:32:21;21.00;76.80
68813;DHT22;55808;48.112;11.552;2022-07-11T11:34:47;21.50;74.60
68813;DHT22;55808;48.112;11.552;2022-07-11T11:37:15;21.10;71.30
68813;DHT22;55808;48.112;11.552;2022-07-11T11:39:42;21.20;73.70
68813;DHT22;55808;48.112;11.552;2022-07-11T11:42:10;21.00;73.50
68813;DHT22;55808;48.112;11.552;2022-07-11T11:44:48;20.30;73.40
68813;DHT22;55808;48.112;11.552;2022-07-11T11:47:14;20.10;73.50
68813;DHT22;55808;48.112;11.552;2022-07-11T11:49:41;20.10;78.80
68813;DHT22;55808;48.112;11.552;2022-07-11T11:52:07;20.00;74.70
68813;DHT22;55808;48.112;11.552;2022-07-11T11:54:33;19.80;75.70
68813;DHT22;55808;48.112;11.552;2022-07-11T11:57:05;19.60;77.70
68813;DHT22;55808;48.112;11.552;2022-07-11T11:59:33;19.60;77.80
68813;DHT22;55808;48.112;11.552;2022-07-11T12:01:58;19.50;76.30
68813;DHT22;55808;48.112;11.552;2022-07-11T12:04:24;19.70;74.90
68813;DHT22;55808;48.112;11.552;2022-07-11T12:06:55;19.70;76.90
68813;DHT22;55808;48.112;11.552;2022-07-11T12:09:21;19.50;78.80
68813;DHT22;55808;48.112;11.552;2022-07-11T12:12:06;19.60;78.10
68813;DHT22;55808;48.112;11.552;2022-07-11T12:14:50;20.00;79.50
68813;DHT22;55808;48.112;11.552;2022-07-11T12:17:25;20.00;78.90
68813;DHT22;55808;48.112;11.552;2022-07-11T12:19:52;19.90;77.60
68813;DHT22;55808;48.112;11.552;2022-07-11T12:22:18;20.20;78.20
68813;DHT22;55808;48.112;11.552;2022-07-11T12:24:48;20.60;76.00
68813;DHT22;55808;48.112;11.552;2022-07-11T12:27:22;20.90;74.10
68813;DHT22;55808;48.112;11.552;2022-07-11T12:29:48;21.10;76.60
68813;DHT22;55808;48.112;11.552;2022-07-11T12:32:20;21.30;73.50
68813;DHT22;55808;48.112;11.552;2022-07-11T12:34:49;21.30;73.80
68813;DHT22;55808;48.112;11.552;2022-07-11T12:37:17;21.30;72.90
68813;DHT22;55808;48.112;11.552;2022-07-11T12:39:55;21.80;74.00
68813;DHT22;55808;48.112;11.552;2022-07-11T12:42:30;21.10;71.90
68813;DHT22;55808;48.112;11.552;2022-07-11T12:45:08;20.90;72.60
68813;DHT22;55808;48.112;11.552;2022-07-11T12:47:38;20.70;73.50
68813;DHT22;55808;48.112;11.552;2022-07-11T12:52:40;21.00;74.10
68813;DHT22;55808;48.112;11.552;2022-07-11T12:55:10;22.30;73.40
68813;DHT22;55808;48.112;11.552;2022-07-11T12:57:38;23.30;68.70
68813;DHT22;55808;48.112;11.552;2022-07-11T13:00:13;22.80;68.60
68813;DHT22;55808;48.112;11.552;2022-07-11T13:02:48;22.60;69.80
68813;DHT22;55808;48.112;11.552;2022-07-11T13:05:13;22.50;68.60
68813;DHT22;55808;48.112;11.552;2022-07-11T13:07:42;22.80;68.50
68813;DHT22;55808;48.112;11.552;2022-07-11T13:10:27;23.60;68.20
68813;DHT22;55808;48.112;11.552;2022-07-11T13:13:13;23.50;68.50
68813;DHT22;55808;48.112;11.552;2022-07-11T13:15:39;23.40;71.00
68813;DHT22;55808;48.112;11.552;2022-07-11T13:18:05;22.80;69.30
68813;DHT22;55808;48.112;11.552;2022-07-11T13:20:31;22.00;71.70
68813;DHT22;55808;48.112;11.552;2022-07-11T13:22:58;22.70;71.60
68813;DHT22;55808;48.112;11.552;2022-07-11T13:25:24;23.10;66.20
68813;DHT22;55808;48.112;11.552;2022-07-11T13:27:51;23.20;65.40
68813;DHT22;55808;48.112;11.552;2022-07-11T13:30:18;21.90;66.40
68813;DHT22;55808;48.112;11.552;2022-07-11T13:32:49;21.40;68.00
68813;DHT22;55808;48.112;11.552;2022-07-11T13:35:17;23.00;68.80
68813;DHT22;55808;48.112;11.552;2022-07-11T13:37:46;24.10;64.70
68813;DHT22;55808;48.112;11.552;2022-07-11T13:40:14;24.70;65.00
68813;DHT22;55808;48.112;11.552;2022-07-11T13:42:41;25.90;68.90
68813;DHT22;55808;48.112;11.552;2022-07-11T13:45:10;26.80;60.90
68813;DHT22;55808;48.112;11.552;2022-07-11T13:47:36;26.40;62.60
68813;DHT22;55808;48.112;11.552;2022-07-11T13:50:02;26.50;58.80
68813;DHT22;55808;48.112;11.552;2022-07-11T13:52:29;25.90;60.90
68813;DHT22;55808;48.112;11.552;2022-07-11T13:54:55;24.20;60.00
68813;DHT22;55808;48.112;11.552;2022-07-11T13:57:21;23.60;62.60
68813;DHT22;55808;48.112;11.552;2022-07-11T13:59:48;23.90;63.50
68813;DHT22;55808;48.112;11.552;2022-07-11T14:02:13;23.30;65.90
68813;DHT22;55808;48.112;11.552;2022-07-11T14:04:39;22.50;65.70
68813;DHT22;55808;48.112;11.552;2022-07-11T14:07:07;22.50;67.30
68813;DHT22;55808;48.112;11.552;2022-07-11T14:09:33;22.50;65.90
68813;DHT22;55808;48.112;11.552;2022-07-11T14:11:59;22.50;67.60
68813;DHT22;55808;48.112;11.552;2022-07-11T14:14:26;22.40;68.00
68813;DHT22;55808;48.112;11.552;2022-07-11T14:16:52;22.00;66.50
68813;DHT22;55808;48.112;11.552;2022-07-11T14:19:18;21.70;66.50
68813;DHT22;55808;48.112;11.552;2022-07-11T14:21:44;22.50;66.00
68813;DHT22;55808;48.112;11.552;2022-07-11T14:24:10;23.10;68.10
68813;DHT22;55808;48.112;11.552;2022-07-11T14:26:37;22.90;66.40
68813;DHT22;55808;48.112;11.552;2022-07-11T14:29:03;22.30;66.80
68813;DHT22;55808;48.112;11.552;2022-07-11T14:31:29;22.00;69.00
68813;DHT22;55808;48.112;11.552;2022-07-11T14:33:55;22.00;67.50
68813;DHT22;55808;48.112;11.552;2022-07-11T14:36:21;22.30;70.10
68813;DHT22;55808;48.112;11.552;2022-07-11T14:38:48;22.10;68.60
68813;DHT22;55808;48.112;11.552;2022-07-11T14:41:14;22.10;69.00
68813;DHT22;55808;48.112;11.552;2022-07-11T14:43:43;22.00;70.50
68813;DHT22;55808;48.112;11.552;2022-07-11T14:46:09;22.00;71.30
68813;DHT22;55808;48.112;11.552;2022-07-11T14:48:35;21.90;71.60
68813;DHT22;55808;48.112;11.552;2022-07-11T14:51:02;22.20;71.40
68813;DHT22;55808;48.112;11.552;2022-07-11T14:53:28;22.00;70.70
68813;DHT22;55808;48.112;11.552;2022-07-11T14:55:54;22.10;71.50
68813;DHT22;55808;48.112;11.552;2022-07-11T14:58:20;22.30;68.10
68813;DHT22;55808;48.112;11.552;2022-07-11T15:00:46;22.00;70.70
68813;DHT22;55808;48.112;11.552;2022-07-11T15:03:12;21.70;70.60
68813;DHT22;55808;48.112;11.552;2022-07-11T15:05:57;21.50;71.20
68813;DHT22;55808;48.112;11.552;2022-07-11T15:08:24;21.60;72.10
68813;DHT22;55808;48.112;11.552;2022-07-11T15:11:08;21.40;71.00
68813;DHT22;55808;48.112;11.552;2022-07-11T15:13:53;21.10;70.80
68813;DHT22;55808;48.112;11.552;2022-07-11T15:16:19;21.30;74.10
68813;DHT22;55808;48.112;11.552;2022-07-11T15:18:45;21.50;72.20
68813;DHT22;55808;48.112;11.552;2022-07-11T15:21:10;21.30;72.10
68813;DHT22;55808;48.112;11.552;2022-07-11T15:23:36;21.10;71.20
68813;DHT22;55808;48.112;11.552;2022-07-11T15:26:02;21.10;72.70
68813;DHT22;55808;48.112;11.552;2022-07-11T15:28:28;21.30;72.30
68813;DHT22;55808;48.112;11.552;2022-07-11T15:30:54;21.30;72.10
68813;DHT22;55808;48.112;11.552;2022-07-11T15:33:20;21.90;70.90
68813;DHT22;55808;48.112;11.552;2022-07-11T15:35:49;22.10;69.80
68813;DHT22;55808;48.112;11.552;2022-07-11T15:38:20;21.50;69.60
68813;DHT22;55808;48.112;11.552;2022-07-11T15:40:46;21.00;70.10
68813;DHT22;55808;48.112;11.552;2022-07-11T15:43:13;21.00;71.60